Time;durP1;ratioP1;P1;durP2;ratioP2;P2;SDS_P1;SDS_P2;PMS_P1;PMS_P2;Temp;Humidity;BMP_temperature;BMP_pressure;BME280_temperature;BME280_humidity;BME280_pressure;Samples;Min_cycle;Max_cycle;Signal;HPM_P1;HPM_P2
2023/11/06 00:00:17;;;;;;;0.50;0.43;;;8.30;99.90;;;;;;4994124;28;20592;-63
2023/11/06 00:02:44;;;;;;;0.30;0.30;;;8.30;99.90;;;;;;4992875;28;20211;-63
2023/11/06 00:05:10;;;;;;;1.75;1.52;;;8.40;99.90;;;;;;4995400;28;20171;-63
2023/11/06 00:07:37;;;;;;;0.30;0.30;;;8.40;99.90;;;;;;4994611;28;20184;-63
2023/11/06 00:10:03;;;;;;;0.40;0.40;;;8.40;99.90;;;;;;4994159;28;20561;-63
2023/11/06 00:12:30;;;;;;;0.35;0.35;;;8.30;99.90;;;;;;4995234;28;20207;-63
2023/11/06 00:14:56;;;;;;;0.60;0.60;;;8.30;99.90;;;;;;4995375;28;20234;-63
2023/11/06 00:17:23;;;;;;;0.30;0.30;;;8.40;99.90;;;;;;4994935;28;20182;-63
2023/11/06 00:19:49;;;;;;;0.55;0.55;;;8.40;99.90;;;;;;4993152;28;20194;-63
2023/11/06 00:22:14;;;;;;;0.40;0.40;;;8.50;99.90;;;;;;4994896;28;20187;-63
2023/11/06 00:24:40;;;;;;;2.47;0.60;;;8.40;99.90;;;;;;4995158;28;20222;-63
2023/11/06 00:27:06;;;;;;;0.40;0.40;;;8.50;99.90;;;;;;4994264;28;20195;-63
2023/11/06 00:29:31;;;;;;;0.30;0.30;;;8.50;99.90;;;;;;5002318;28;20183;-62
2023/11/06 00:31:57;;;;;;;3.70;3.50;;;8.50;99.90;;;;;;4979835;28;20295;-62
2023/11/06 00:34:22;;;;;;;0.77;0.77;;;8.40;99.90;;;;;;4977801;28;20263;-63
2023/11/06 00:36:48;;;;;;;0.87;0.87;;;8.60;99.90;;;;;;4978667;28;20179;-63
2023/11/06 00:39:14;;;;;;;0.30;0.30;;;8.70;99.90;;;;;;4976647;28;20278;-63
2023/11/06 00:41:42;;;;;;;1.60;0.83;;;8.70;99.90;;;;;;4977041;28;20574;-63
2023/11/06 00:44:08;;;;;;;1.05;0.52;;;8.80;99.90;;;;;;4977788;28;20582;-63
2023/11/06 00:46:34;;;;;;;1.27;1.17;;;8.80;99.90;;;;;;4978042;28;20180;-63
2023/11/06 00:49:01;;;;;;;0.38;0.38;;;8.80;99.90;;;;;;4976771;28;20186;-63
2023/11/06 00:51:26;;;;;;;1.05;1.02;;;8.90;99.90;;;;;;4977636;28;20169;-63
2023/11/06 00:53:52;;;;;;;0.40;0.40;;;8.90;99.90;;;;;;5004409;23;20236;-59
2023/11/06 00:56:18;;;;;;;0.30;0.30;;;8.80;99.90;;;;;;5014810;28;20176;-59
2023/11/06 00:58:43;;;;;;;1.17;0.93;;;8.80;99.90;;;;;;5014557;28;20182;-59
2023/11/06 01:01:09;;;;;;;0.40;0.40;;;8.80;99.90;;;;;;5014262;28;20249;-59
2023/11/06 01:03:35;;;;;;;0.70;0.50;;;8.90;99.90;;;;;;5015035;28;20635;-59
2023/11/06 01:06:01;;;;;;;0.30;0.30;;;8.90;99.90;;;;;;5015010;28;20175;-58
2023/11/06 01:08:27;;;;;;;0.40;0.40;;;8.70;99.90;;;;;;5014551;28;20781;-59
2023/11/06 01:10:53;;;;;;;0.70;0.70;;;8.60;99.90;;;;;;5014835;28;20190;-59
2023/11/06 01:13:18;;;;;;;0.30;0.30;;;8.60;99.90;;;;;;5014932;28;20183;-59
2023/11/06 01:15:44;;;;;;;1.00;1.00;;;8.60;99.90;;;;;;5014813;28;20198;-59
2023/11/06 01:18:11;;;;;;;0.40;0.40;;;8.60;99.90;;;;;;5014510;28;20179;-59
2023/11/06 01:20:37;;;;;;;0.60;0.60;;;8.60;99.90;;;;;;5014697;28;20215;-59
2023/11/06 01:23:02;;;;;;;0.40;0.40;;;8.70;99.90;;;;;;5014614;28;20171;-59
2023/11/06 01:25:28;;;;;;;0.53;0.53;;;8.70;99.90;;;;;;5014777;28;20206;-59
2023/11/06 01:27:55;;;;;;;0.30;0.30;;;8.80;99.90;;;;;;5014450;28;20164;-59
2023/11/06 01:30:20;;;;;;;2.30;0.70;;;8.90;99.90;;;;;;5014271;28;20176;-59
2023/11/06 01:32:46;;;;;;;0.50;0.50;;;8.80;99.90;;;;;;5014511;28;20179;-59
2023/11/06 01:35:12;;;;;;;0.40;0.40;;;8.70;99.90;;;;;;5014328;28;20245;-59
2023/11/06 01:37:40;;;;;;;0.60;0.60;;;8.70;99.90;;;;;;5014183;28;20176;-59
2023/11/06 01:40:10;;;;;;;1.13;0.65;;;8.60;99.90;;;;;;5014156;28;20234;-59
2023/11/06 01:42:36;;;;;;;0.30;0.30;;;8.50;99.90;;;;;;5014478;28;20617;-59
2023/11/06 01:45:05;;;;;;;0.95;0.73;;;8.60;99.90;;;;;;5013565;28;20180;-58
2023/11/06 01:47:31;;;;;;;0.30;0.30;;;8.70;99.90;;;;;;5014191;28;20186;-58
2023/11/06 01:49:57;;;;;;;0.40;0.40;;;8.60;99.90;;;;;;5013866;28;20183;-59
2023/11/06 01:52:23;;;;;;;0.50;0.50;;;8.70;99.90;;;;;;5014058;28;20546;-59
2023/11/06 01:54:49;;;;;;;5.25;0.60;;;8.80;99.90;;;;;;5014051;28;20200;-59
2023/11/06 01:57:17;;;;;;;0.40;0.40;;;8.80;99.90;;;;;;5013179;28;20182;-59
2023/11/06 01:59:43;;;;;;;0.40;0.40;;;8.90;99.90;;;;;;5013769;28;20399;-59
2023/11/06 02:02:09;;;;;;;0.50;0.50;;;8.80;99.90;;;;;;5013889;28;20337;-59
2023/11/06 02:04:35;;;;;;;1.83;0.50;;;8.80;99.90;;;;;;5013791;28;20230;-59
2023/11/06 02:07:01;;;;;;;0.30;0.30;;;8.80;99.90;;;;;;5013895;28;20710;-59
2023/11/06 02:09:29;;;;;;;0.40;0.40;;;8.90;99.90;;;;;;5013649;28;20413;-59
2023/11/06 02:11:58;;;;;;;0.40;0.40;;;8.90;99.90;;;;;;5013761;28;20262;-59
2023/11/06 02:14:24;;;;;;;0.30;0.30;;;8.90;99.90;;;;;;5013723;28;20199;-58
2023/11/06 02:16:53;;;;;;;0.80;0.50;;;8.90;99.90;;;;;;5013618;28;20179;-58
2023/11/06 02:19:20;;;;;;;0.40;0.40;;;9.00;99.90;;;;;;5013264;28;20640;-59
2023/11/06 02:21:52;;;;;;;0.40;0.40;;;9.00;99.90;;;;;;5013465;28;20723;-58
2023/11/06 02:24:18;;;;;;;0.50;0.50;;;9.00;99.90;;;;;;5013474;28;20266;-58
2023/11/06 02:26:54;;;;;;;0.40;0.40;;;8.90;99.90;;;;;;5013660;28;20623;-59
2023/11/06 02:29:20;;;;;;;0.30;0.30;;;8.90;99.90;;;;;;5013367;28;20167;-59
2023/11/06 02:31:46;;;;;;;0.30;0.30;;;8.80;99.90;;;;;;5013342;28;20263;-59
2023/11/06 02:34:11;;;;;;;1.70;0.80;;;8.90;99.90;;;;;;5013676;28;20214;-59
2023/11/06 02:36:37;;;;;;;3.50;0.73;;;8.90;99.90;;;;;;5013178;28;20179;-58
2023/11/06 02:39:05;;;;;;;0.40;0.40;;;8.90;99.90;;;;;;5013048;28;20176;-58
2023/11/06 02:41:30;;;;;;;1.38;1.38;;;8.80;99.90;;;;;;5013244;28;20211;-59
2023/11/06 02:43:56;;;;;;;0.30;0.30;;;8.70;99.90;;;;;;5013098;28;20187;-59
2023/11/06 02:46:21;;;;;;;1.23;0.90;;;8.60;99.90;;;;;;5012984;28;20164;-59
2023/11/06 02:48:47;;;;;;;0.40;0.40;;;8.70;99.90;;;;;;5012842;28;20605;-58
2023/11/06 02:51:13;;;;;;;0.40;0.40;;;8.60;99.90;;;;;;5013009;28;20190;-58
2023/11/06 02:53:38;;;;;;;0.60;0.40;;;8.60;99.90;;;;;;5012933;28;20172;-58
2023/11/06 02:56:04;;;;;;;0.40;0.40;;;8.50;99.90;;;;;;5012142;28;20188;-58
2023/11/06 02:58:30;;;;;;;0.30;0.30;;;8.50;99.90;;;;;;5012632;28;20199;-59
2023/11/06 03:00:55;;;;;;;0.30;0.30;;;8.60;99.90;;;;;;5012779;28;20200;-59
2023/11/06 03:03:21;;;;;;;8.03;0.63;;;8.60;99.90;;;;;;5012842;28;20629;-58
2023/11/06 03:05:47;;;;;;;0.63;0.63;;;8.50;99.90;;;;;;5012554;28;20183;-58
2023/11/06 03:08:12;;;;;;;0.30;0.30;;;8.40;99.90;;;;;;5012501;28;20221;-58
2023/11/06 03:10:38;;;;;;;3.77;0.50;;;8.50;99.90;;;;;;5012697;28;20661;-58
2023/11/06 03:13:07;;;;;;;0.30;0.30;;;8.50;99.90;;;;;;5012601;28;20171;-58
2023/11/06 03:15:33;;;;;;;0.40;0.40;;;8.40;99.90;;;;;;5012470;28;20195;-58
2023/11/06 03:17:59;;;;;;;3.13;0.50;;;8.40;99.90;;;;;;5012430;28;20202;-58
2023/11/06 03:20:24;;;;;;;0.30;0.30;;;8.40;99.90;;;;;;5012497;28;20215;-58
2023/11/06 03:22:51;;;;;;;0.40;0.40;;;8.50;99.90;;;;;;5012380;28;20645;-58
2023/11/06 03:25:16;;;;;;;0.30;0.30;;;8.50;99.90;;;;;;5012274;28;20199;-59
2023/11/06 03:27:42;;;;;;;1.67;0.82;;;8.60;99.90;;;;;;5012355;28;20175;-59
2023/11/06 03:30:09;;;;;;;0.30;0.30;;;8.70;99.90;;;;;;5012124;28;20187;-59
2023/11/06 03:32:34;;;;;;;0.40;0.40;;;8.80;99.90;;;;;;5012353;28;20176;-58
2023/11/06 03:35:00;;;;;;;0.40;0.40;;;8.70;99.90;;;;;;5012431;28;20641;-59
2023/11/06 03:37:26;;;;;;;0.40;0.40;;;8.60;99.90;;;;;;5012245;28;20266;-59
2023/11/06 03:39:52;;;;;;;2.05;0.50;;;8.60;99.90;;;;;;5011980;28;20541;-59
2023/11/06 03:42:18;;;;;;;0.40;0.40;;;8.70;99.90;;;;;;5012203;28;20172;-58
2023/11/06 03:44:43;;;;;;;0.30;0.30;;;8.70;99.90;;;;;;5012070;28;20325;-58
2023/11/06 03:47:09;;;;;;;0.30;0.30;;;8.70;99.90;;;;;;5012064;28;20172;-59
2023/11/06 03:49:35;;;;;;;0.30;0.30;;;8.80;99.90;;;;;;5010479;28;20167;-59
2023/11/06 03:52:00;;;;;;;2.63;0.70;;;8.80;99.90;;;;;;5011933;28;20429;-58
2023/11/06 03:54:27;;;;;;;0.80;0.40;;;8.80;99.90;;;;;;5011961;28;20561;-58
2023/11/06 03:56:52;;;;;;;0.40;0.40;;;8.80;99.90;;;;;;5012062;28;20214;-58
2023/11/06 03:59:18;;;;;;;0.30;0.30;;;8.80;99.90;;;;;;5011872;28;20203;-58
2023/11/06 04:01:44;;;;;;;0.30;0.30;;;8.90;99.90;;;;;;5011995;28;20195;-59
2023/11/06 04:04:10;;;;;;;3.13;0.73;;;8.90;99.90;;;;;;5011714;28;20198;-59
2023/11/06 04:06:35;;;;;;;0.93;0.50;;;8.80;99.90;;;;;;5011852;28;20179;-59
2023/11/06 04:09:02;;;;;;;0.30;0.30;;;8.70;99.90;;;;;;5015007;28;20171;-58
2023/11/06 04:11:29;;;;;;;0.40;0.40;;;8.80;99.90;;;;;;5015934;28;20234;-59
2023/11/06 04:13:54;;;;;;;0.40;0.40;;;8.80;99.90;;;;;;5015856;28;20191;-59
2023/11/06 04:16:20;;;;;;;0.60;0.50;;;8.50;99.90;;;;;;5015795;28;20202;-59
2023/11/06 04:18:47;;;;;;;0.30;0.30;;;8.50;99.90;;;;;;5015557;28;20167;-59
2023/11/06 04:21:12;;;;;;;0.30;0.30;;;8.50;99.90;;;;;;5015955;28;20233;-58
2023/11/06 04:23:38;;;;;;;0.30;0.30;;;8.60;99.90;;;;;;5015701;28;20171;-58
2023/11/06 04:26:04;;;;;;;0.45;0.45;;;8.60;99.90;;;;;;5015703;28;20173;-59
2023/11/06 04:28:31;;;;;;;0.70;0.50;;;8.60;99.90;;;;;;5015494;28;20175;-59
2023/11/06 04:30:56;;;;;;;0.40;0.40;;;8.60;99.90;;;;;;5015614;28;20180;-59
2023/11/06 04:33:22;;;;;;;0.30;0.30;;;8.60;99.90;;;;;;5015537;28;20188;-59
2023/11/06 04:35:48;;;;;;;0.30;0.30;;;8.60;99.90;;;;;;5015422;28;20210;-59
2023/11/06 04:38:13;;;;;;;0.40;0.40;;;8.60;99.90;;;;;;5015220;28;20171;-59
2023/11/06 04:40:39;;;;;;;0.30;0.30;;;8.40;99.90;;;;;;5015425;28;20207;-59
2023/11/06 04:43:05;;;;;;;0.40;0.40;;;8.40;99.90;;;;;;5015394;28;20163;-59
2023/11/06 04:45:31;;;;;;;0.30;0.30;;;8.50;99.90;;;;;;5015360;28;20199;-59
2023/11/06 04:47:57;;;;;;;0.47;0.38;;;8.50;99.90;;;;;;5015054;28;20273;-59
2023/11/06 04:50:23;;;;;;;0.67;0.50;;;8.50;99.90;;;;;;5015197;28;20216;-59
2023/11/06 04:52:48;;;;;;;0.30;0.30;;;8.50;99.90;;;;;;5015251;28;20194;-60
2023/11/06 04:55:14;;;;;;;0.30;0.30;;;8.50;99.90;;;;;;5015110;28;20292;-59
2023/11/06 04:57:40;;;;;;;0.30;0.30;;;8.50;99.90;;;;;;5014888;28;20171;-59
2023/11/06 05:00:10;;;;;;;0.30;0.30;;;8.50;99.90;;;;;;5014828;28;20410;-59
2023/11/06 05:02:36;;;;;;;0.40;0.40;;;8.60;99.90;;;;;;5015159;28;20687;-59
2023/11/06 05:05:01;;;;;;;1.17;1.07;;;8.70;99.90;;;;;;5015017;28;20199;-59
2023/11/06 05:07:27;;;;;;;0.30;0.30;;;8.70;99.90;;;;;;5014421;28;20176;-59
2023/11/06 05:09:53;;;;;;;0.30;0.30;;;8.70;99.90;;;;;;5014496;28;20222;-59
2023/11/06 05:12:19;;;;;;;0.70;0.67;;;8.60;99.90;;;;;;5012270;28;20179;-59
2023/11/06 05:14:44;;;;;;;0.50;0.50;;;8.60;99.90;;;;;;5014119;28;20183;-59
2023/11/06 05:17:10;;;;;;;0.60;0.60;;;8.60;99.90;;;;;;5014563;28;20595;-59
2023/11/06 05:19:41;;;;;;;0.77;0.77;;;8.50;99.90;;;;;;5013267;28;20167;-59
2023/11/06 05:22:08;;;;;;;0.40;0.40;;;8.50;99.90;;;;;;5014480;28;20449;-59
2023/11/06 05:24:34;;;;;;;0.40;0.40;;;8.70;99.90;;;;;;5014680;28;20647;-59
2023/11/06 05:27:00;;;;;;;0.65;0.65;;;8.70;99.90;;;;;;5014449;28;20176;-59
2023/11/06 05:29:27;;;;;;;0.63;0.40;;;8.80;99.90;;;;;;5014347;28;20179;-59
2023/11/06 05:31:52;;;;;;;0.60;0.60;;;8.70;99.90;;;;;;5014393;28;20566;-60
2023/11/06 05:34:18;;;;;;;0.30;0.30;;;8.70;99.90;;;;;;5014598;28;20199;-59
2023/11/06 05:36:44;;;;;;;2.77;0.50;;;8.80;99.90;;;;;;5014255;28;20553;-59
2023/11/06 05:39:11;;;;;;;0.40;0.40;;;8.80;99.90;;;;;;5014282;28;20719;-59
2023/11/06 05:41:37;;;;;;;2.05;0.50;;;8.80;99.90;;;;;;5014187;28;20641;-59
2023/11/06 05:44:03;;;;;;;0.32;0.32;;;8.90;99.90;;;;;;5014265;28;20198;-59
2023/11/06 05:46:29;;;;;;;0.30;0.30;;;9.00;99.90;;;;;;5014209;28;20259;-59
2023/11/06 05:48:55;;;;;;;1.13;0.67;;;8.90;99.90;;;;;;5013878;28;20441;-59
2023/11/06 05:51:21;;;;;;;0.30;0.30;;;8.90;99.90;;;;;;5014201;28;20464;-59
2023/11/06 05:53:47;;;;;;;0.70;0.60;;;8.90;99.90;;;;;;5013841;28;20645;-59
2023/11/06 05:56:12;;;;;;;0.40;0.40;;;8.90;99.90;;;;;;5013998;28;20415;-59
2023/11/06 05:58:38;;;;;;;0.40;0.40;;;8.90;99.90;;;;;;5013911;28;20255;-59
2023/11/06 06:01:04;;;;;;;0.30;0.30;;;8.90;99.90;;;;;;5013989;28;20204;-59
2023/11/06 06:03:30;;;;;;;0.30;0.30;;;8.90;99.90;;;;;;5013608;28;20175;-59
2023/11/06 06:05:55;;;;;;;0.50;0.50;;;9.00;99.90;;;;;;5013645;28;20199;-59
2023/11/06 06:08:21;;;;;;;2.10;0.60;;;8.90;99.90;;;;;;5013663;28;20221;-59
2023/11/06 06:10:47;;;;;;;15.13;0.60;;;9.00;99.90;;;;;;5013786;28;20471;-59
2023/11/06 06:13:13;;;;;;;0.40;0.40;;;9.00;99.90;;;;;;5013697;28;20179;-60
2023/11/06 06:15:39;;;;;;;0.38;0.38;;;9.00;99.90;;;;;;5013433;28;20199;-59
2023/11/06 06:18:04;;;;;;;0.30;0.30;;;8.90;99.90;;;;;;5013431;28;20558;-60
2023/11/06 06:20:30;;;;;;;0.30;0.30;;;9.00;99.90;;;;;;5013386;28;20198;-59
2023/11/06 06:22:55;;;;;;;0.47;0.47;;;9.00;99.90;;;;;;5013559;28;20178;-59
2023/11/06 06:25:21;;;;;;;0.40;0.40;;;9.00;99.90;;;;;;5013409;28;20279;-59
2023/11/06 06:27:47;;;;;;;0.30;0.30;;;9.00;99.90;;;;;;5013379;28;20164;-59
2023/11/06 06:30:14;;;;;;;0.40;0.40;;;9.00;99.90;;;;;;5012933;28;20230;-59
2023/11/06 06:32:41;;;;;;;0.40;0.40;;;8.90;99.90;;;;;;5013495;28;20179;-59
2023/11/06 06:35:07;;;;;;;0.40;0.40;;;8.80;99.90;;;;;;5013384;28;20195;-59
2023/11/06 06:37:33;;;;;;;0.30;0.30;;;8.90;99.90;;;;;;5013147;28;20180;-61
2023/11/06 06:39:59;;;;;;;0.67;0.47;;;8.90;99.90;;;;;;5013075;28;20258;-59
2023/11/06 06:42:24;;;;;;;0.77;0.77;;;8.80;99.90;;;;;;5013164;28;20172;-59
2023/11/06 06:44:52;;;;;;;0.40;0.40;;;8.90;99.90;;;;;;5012996;28;20183;-58
2023/11/06 06:47:18;;;;;;;0.30;0.30;;;8.90;99.90;;;;;;5012989;28;20164;-59
2023/11/06 06:49:43;;;;;;;0.30;0.30;;;8.80;99.90;;;;;;5012886;28;20225;-59
2023/11/06 06:52:10;;;;;;;0.40;0.40;;;8.90;99.90;;;;;;5013062;28;20222;-59
2023/11/06 06:54:36;;;;;;;1.40;0.40;;;8.90;99.90;;;;;;5066566;23;20230;-63
2023/11/06 06:57:03;;;;;;;0.40;0.40;;;8.90;99.90;;;;;;5013392;28;20176;-64
2023/11/06 06:59:29;;;;;;;3.70;0.70;;;9.00;99.90;;;;;;5012611;28;20184;-63
2023/11/06 07:01:56;;;;;;;0.40;0.40;;;9.00;99.90;;;;;;5012799;28;20587;-63
2023/11/06 07:04:21;;;;;;;0.40;0.40;;;9.10;99.90;;;;;;5012812;28;20442;-64
2023/11/06 07:06:47;;;;;;;0.30;0.30;;;9.10;99.90;;;;;;5012619;28;20172;-63
2023/11/06 07:09:13;;;;;;;0.30;0.30;;;9.10;99.90;;;;;;5011123;28;20805;-64
2023/11/06 07:11:39;;;;;;;0.60;0.60;;;9.20;99.90;;;;;;5012524;28;20924;-63
2023/11/06 07:14:05;;;;;;;0.30;0.30;;;9.30;99.90;;;;;;5012511;28;20645;-63
2023/11/06 07:16:30;;;;;;;0.30;0.30;;;9.40;99.90;;;;;;5012582;28;20175;-63
2023/11/06 07:18:56;;;;;;;0.40;0.40;;;9.40;99.90;;;;;;5012166;28;20172;-63
2023/11/06 07:21:23;;;;;;;3.70;1.90;;;9.40;99.90;;;;;;5012807;28;20195;-63
2023/11/06 07:23:49;;;;;;;3.15;0.50;;;9.40;99.90;;;;;;5012528;28;20170;-63
2023/11/06 07:26:15;;;;;;;0.40;0.40;;;9.50;99.90;;;;;;5012266;28;20202;-63
2023/11/06 07:28:41;;;;;;;0.30;0.30;;;9.60;99.90;;;;;;5010767;28;20172;-63
2023/11/06 07:31:07;;;;;;;0.50;0.50;;;9.70;99.90;;;;;;5012475;28;20789;-63
2023/11/06 07:33:32;;;;;;;0.40;0.40;;;9.70;99.90;;;;;;5012283;28;20411;-63
2023/11/06 07:35:58;;;;;;;0.60;0.50;;;9.80;99.90;;;;;;5012051;28;20233;-63
2023/11/06 07:38:24;;;;;;;0.40;0.40;;;9.90;99.90;;;;;;5011947;28;20242;-63
2023/11/06 07:40:50;;;;;;;1.77;1.58;;;9.90;99.90;;;;;;5012293;28;20254;-63
2023/11/06 07:43:16;;;;;;;0.40;0.40;;;10.00;99.90;;;;;;5011625;28;20530;-63
2023/11/06 07:45:41;;;;;;;1.73;0.60;;;9.90;99.90;;;;;;5012101;28;20188;-63
2023/11/06 07:48:07;;;;;;;0.40;0.40;;;9.90;99.90;;;;;;5011715;28;20218;-65
2023/11/06 07:50:33;;;;;;;0.50;0.50;;;10.00;99.90;;;;;;5012053;28;20733;-64
2023/11/06 07:52:59;;;;;;;0.40;0.40;;;9.90;99.90;;;;;;5011803;28;20878;-63
2023/11/06 07:55:25;;;;;;;0.40;0.40;;;9.70;99.90;;;;;;5011807;28;20227;-63
2023/11/06 07:57:50;;;;;;;2.00;0.60;;;9.70;99.90;;;;;;5011886;28;20176;-64
2023/11/06 08:00:17;;;;;;;2.50;1.23;;;9.70;99.90;;;;;;5011893;28;20168;-63
2023/11/06 08:02:42;;;;;;;0.45;0.45;;;9.90;99.90;;;;;;5011921;28;20173;-63
2023/11/06 08:05:10;;;;;;;0.30;0.30;;;10.10;99.90;;;;;;5010169;28;20270;-63
2023/11/06 08:07:38;;;;;;;0.52;0.52;;;10.30;99.90;;;;;;5010222;28;20184;-63
2023/11/06 08:10:07;;;;;;;0.43;0.43;;;10.60;99.90;;;;;;5010152;28;20183;-63
2023/11/06 08:12:33;;;;;;;0.30;0.30;;;10.70;99.90;;;;;;5011366;28;20294;-63
2023/11/06 08:14:59;;;;;;;0.57;0.50;;;10.80;99.90;;;;;;5010455;28;20218;-66
2023/11/06 08:17:25;;;;;;;0.60;0.60;;;10.90;99.90;;;;;;5011815;28;20697;-66
2023/11/06 08:19:52;;;;;;;0.40;0.40;;;11.30;99.90;;;;;;5011680;28;20556;-66
2023/11/06 08:22:21;;;;;;;0.30;0.30;;;11.80;99.90;;;;;;5012082;28;20207;-66
2023/11/06 08:24:48;;;;;;;0.40;0.40;;;12.30;99.90;;;;;;5012561;28;20445;-63
2023/11/06 08:27:14;;;;;;;0.50;0.50;;;12.70;99.90;;;;;;5013835;28;20926;-63
2023/11/06 08:29:42;;;;;;;0.40;0.40;;;12.90;97.80;;;;;;5012228;28;20417;-63
2023/11/06 08:32:11;;;;;;;0.50;0.50;;;13.00;97.00;;;;;;5012194;28;20410;-63
2023/11/06 08:34:44;;;;;;;0.93;0.57;;;13.30;96.30;;;;;;5011875;28;20935;-63
2023/11/06 08:37:11;;;;;;;0.70;0.70;;;13.10;95.90;;;;;;5012123;28;20423;-63
2023/11/06 08:39:47;;;;;;;0.50;0.50;;;13.00;95.90;;;;;;5011578;28;20434;-63
2023/11/06 08:42:14;;;;;;;0.70;0.70;;;13.00;95.30;;;;;;5011344;28;21120;-64
2023/11/06 08:44:40;;;;;;;0.30;0.30;;;12.90;95.70;;;;;;5011570;28;20774;-63
2023/11/06 08:47:09;;;;;;;0.40;0.40;;;12.80;96.00;;;;;;5013863;28;20410;-63
2023/11/06 08:49:36;;;;;;;0.30;0.30;;;12.50;96.30;;;;;;5013399;28;20992;-63
2023/11/06 08:52:02;;;;;;;0.40;0.40;;;12.20;96.60;;;;;;5013834;28;20414;-63
2023/11/06 08:54:30;;;;;;;0.40;0.40;;;12.00;97.50;;;;;;5015598;28;20456;-63
2023/11/06 08:56:59;;;;;;;1.47;1.47;;;12.00;98.30;;;;;;5016887;28;20418;-64
2023/11/06 08:59:27;;;;;;;0.47;0.47;;;12.30;97.70;;;;;;5015199;28;20418;-63
2023/11/06 09:01:53;;;;;;;0.70;0.60;;;12.60;97.50;;;;;;5015755;28;20528;-66
2023/11/06 09:04:19;;;;;;;0.90;0.60;;;12.90;97.50;;;;;;5015877;28;20426;-64
2023/11/06 09:06:45;;;;;;;0.40;0.40;;;13.30;96.70;;;;;;5015878;28;20313;-63
2023/11/06 09:09:11;;;;;;;0.40;0.40;;;13.60;95.70;;;;;;5015377;28;20490;-63
2023/11/06 09:11:38;;;;;;;1.03;0.63;;;13.70;95.10;;;;;;5015916;28;20496;-63
2023/11/06 09:14:04;;;;;;;0.70;0.50;;;14.00;95.20;;;;;;5015558;28;20786;-63
2023/11/06 09:16:36;;;;;;;0.60;0.60;;;14.30;94.40;;;;;;5016307;28;20465;-63
2023/11/06 09:19:04;;;;;;;0.60;0.60;;;14.40;94.10;;;;;;5015117;28;20453;-63
2023/11/06 09:21:30;;;;;;;0.50;0.50;;;14.40;93.60;;;;;;5015119;28;20970;-63
2023/11/06 09:23:56;;;;;;;0.40;0.40;;;14.30;94.10;;;;;;5015010;28;20410;-64
2023/11/06 09:26:21;;;;;;;0.40;0.40;;;14.20;93.90;;;;;;5015248;28;20263;-63
2023/11/06 09:28:48;;;;;;;0.37;0.37;;;14.50;94.20;;;;;;5014209;28;20195;-64
2023/11/06 09:31:16;;;;;;;0.60;0.50;;;14.80;93.20;;;;;;5014780;28;20174;-63
2023/11/06 09:33:42;;;;;;;0.40;0.40;;;14.70;92.90;;;;;;5015116;28;20420;-63
2023/11/06 09:36:08;;;;;;;3.40;0.40;;;14.60;92.60;;;;;;5014371;28;20432;-63
2023/11/06 09:38:35;;;;;;;0.40;0.40;;;14.50;92.80;;;;;;5014196;28;20181;-63
2023/11/06 09:41:03;;;;;;;1.03;0.50;;;14.40;93.00;;;;;;5015026;28;20442;-63
2023/11/06 09:43:29;;;;;;;0.30;0.30;;;14.70;94.20;;;;;;5014301;28;20406;-63
2023/11/06 09:45:56;;;;;;;0.40;0.40;;;15.50;92.60;;;;;;5013982;28;20427;-63
2023/11/06 09:48:29;;;;;;;0.30;0.30;;;16.20;92.20;;;;;;5014415;28;20925;-65
2023/11/06 09:50:56;;;;;;;0.50;0.50;;;16.70;88.20;;;;;;5014819;28;20437;-64
2023/11/06 09:53:23;;;;;;;0.40;0.40;;;17.70;87.60;;;;;;5014319;28;20419;-64
2023/11/06 09:55:51;;;;;;;0.40;0.40;;;19.00;83.90;;;;;;5013879;28;20479;-64
2023/11/06 09:58:16;;;;;;;0.30;0.30;;;20.20;78.70;;;;;;5013727;28;20457;-64
2023/11/06 10:00:50;;;;;;;0.50;0.50;;;20.80;76.00;;;;;;5013811;28;20413;-64
2023/11/06 10:03:16;;;;;;;0.30;0.30;;;21.30;73.20;;;;;;5013964;28;20267;-64
2023/11/06 10:05:43;;;;;;;1.13;0.40;;;21.60;72.50;;;;;;5013380;28;20941;-64
2023/11/06 10:08:08;;;;;;;0.40;0.40;;;21.60;70.70;;;;;;5013501;28;20586;-64
2023/11/06 10:10:35;;;;;;;0.40;0.40;;;21.30;67.30;;;;;;5014499;28;20381;-64
2023/11/06 10:13:05;;;;;;;0.37;0.37;;;20.60;71.20;;;;;;5013615;28;20188;-64
2023/11/06 10:15:36;;;;;;;0.30;0.30;;;20.20;71.20;;;;;;5013697;28;20401;-64
2023/11/06 10:18:16;;;;;;;0.30;0.30;;;20.00;71.60;;;;;;5013495;28;20484;-64
2023/11/06 10:20:52;;;;;;;0.60;0.60;;;19.70;71.60;;;;;;5013242;28;20446;-65
2023/11/06 10:23:34;;;;;;;0.77;0.40;;;19.30;71.30;;;;;;5013595;28;20416;-64
2023/11/06 10:26:14;;;;;;;0.67;0.67;;;18.60;72.20;;;;;;5013344;28;20938;-64
2023/11/06 10:28:41;;;;;;;0.40;0.40;;;17.80;74.90;;;;;;5013420;28;20403;-64
2023/11/06 10:31:07;;;;;;;3.00;1.17;;;16.20;77.00;;;;;;5013286;28;20481;-64
2023/11/06 10:33:33;;;;;;;0.50;0.50;;;15.50;79.70;;;;;;5013527;28;20442;-64
2023/11/06 10:36:00;;;;;;;0.40;0.40;;;15.10;82.90;;;;;;5013457;28;20461;-64
2023/11/06 10:38:30;;;;;;;0.40;0.40;;;15.00;84.50;;;;;;5011937;28;20180;-64
2023/11/06 10:40:57;;;;;;;0.30;0.30;;;14.80;87.50;;;;;;5013165;28;20488;-64
2023/11/06 10:43:22;;;;;;;0.30;0.30;;;14.70;87.70;;;;;;5013111;28;20399;-63
2023/11/06 10:45:49;;;;;;;0.40;0.40;;;14.80;90.00;;;;;;5013099;28;20472;-64
2023/11/06 10:48:30;;;;;;;2.00;0.40;;;14.90;90.30;;;;;;5012965;28;20251;-63
2023/11/06 10:50:57;;;;;;;1.27;0.50;;;14.70;88.10;;;;;;5013584;28;20421;-64
2023/11/06 10:53:25;;;;;;;0.40;0.40;;;14.60;88.70;;;;;;5012160;28;20464;-64
2023/11/06 10:55:52;;;;;;;0.63;0.53;;;14.60;90.20;;;;;;5012663;28;20844;-64
2023/11/06 10:58:21;;;;;;;0.30;0.30;;;14.60;91.70;;;;;;5012480;28;20442;-64
2023/11/06 11:00:47;;;;;;;0.50;0.40;;;14.60;90.50;;;;;;5013137;28;20467;-64
2023/11/06 11:03:17;;;;;;;0.30;0.30;;;14.40;90.80;;;;;;5013071;28;20791;-64
2023/11/06 11:05:42;;;;;;;1.33;0.70;;;14.30;90.70;;;;;;5012706;28;20899;-64
2023/11/06 11:08:09;;;;;;;0.30;0.30;;;14.20;90.20;;;;;;5012467;28;20489;-64
2023/11/06 11:10:35;;;;;;;0.40;0.40;;;13.80;90.90;;;;;;5012576;28;20179;-64
2023/11/06 11:13:03;;;;;;;0.40;0.40;;;13.30;90.90;;;;;;5012528;28;20770;-64
2023/11/06 11:15:31;;;;;;;0.50;0.50;;;13.10;91.60;;;;;;5012503;28;20274;-64
2023/11/06 11:17:58;;;;;;;0.57;0.57;;;12.80;91.70;;;;;;5011618;28;20417;-64
2023/11/06 11:20:26;;;;;;;0.60;0.50;;;12.70;92.40;;;;;;5012574;28;20407;-64
2023/11/06 11:23:03;;;;;;;0.43;0.43;;;12.60;93.70;;;;;;5012476;28;20506;-64
2023/11/06 11:25:59;;;;;;;0.40;0.40;;;12.60;94.10;;;;;;5012211;28;20424;-64
2023/11/06 11:28:26;;;;;;;0.40;0.40;;;12.60;94.40;;;;;;5004252;28;20415;-64
2023/11/06 11:30:53;;;;;;;0.40;0.40;;;12.60;94.50;;;;;;5012166;28;20990;-64
2023/11/06 11:33:54;;;;;;;0.73;0.40;;;12.60;94.40;;;;;;5012379;28;20426;-64
2023/11/06 11:36:37;;;;;;;0.40;0.40;;;12.60;95.40;;;;;;5012205;28;20787;-63
2023/11/06 11:39:13;;;;;;;0.30;0.30;;;12.50;94.60;;;;;;5012123;28;20410;-64
2023/11/06 11:41:59;;;;;;;0.73;0.73;;;12.60;95.20;;;;;;5012134;28;20450;-64
2023/11/06 11:44:25;;;;;;;0.70;0.40;;;12.60;94.80;;;;;;5011892;28;20426;-64
2023/11/06 11:46:50;;;;;;;0.50;0.50;;;12.50;94.70;;;;;;5011878;28;20461;-63
2023/11/06 11:49:45;;;;;;;0.40;0.40;;;12.60;95.20;;;;;;5011934;28;20410;-64
2023/11/06 11:52:15;;;;;;;0.40;0.40;;;12.70;95.10;;;;;;5012047;28;20175;-64
2023/11/06 11:54:41;;;;;;;0.40;0.40;;;12.70;95.70;;;;;;5011577;28;20453;-64
2023/11/06 11:57:10;;;;;;;0.40;0.40;;;12.70;95.40;;;;;;5011707;28;20439;-63
2023/11/06 11:59:40;;;;;;;0.40;0.30;;;12.70;95.10;;;;;;5011918;28;20451;-64
2023/11/06 12:02:29;;;;;;;1.53;0.70;;;12.80;95.30;;;;;;5011715;28;20457;-64
2023/11/06 12:04:57;;;;;;;1.53;1.13;;;12.80;95.10;;;;;;5011732;28;20473;-64
2023/11/06 12:07:25;;;;;;;0.40;0.40;;;12.80;94.90;;;;;;5011892;28;20442;-64
2023/11/06 12:09:52;;;;;;;0.40;0.40;;;12.90;95.20;;;;;;5011505;28;20419;-64
2023/11/06 12:12:28;;;;;;;0.77;0.77;;;13.00;94.90;;;;;;5012054;28;21000;-64
2023/11/06 12:14:56;;;;;;;0.37;0.37;;;13.00;94.80;;;;;;5011584;28;20437;-64
2023/11/06 12:17:26;;;;;;;0.40;0.40;;;13.00;94.70;;;;;;5011505;28;20415;-64
2023/11/06 12:19:52;;;;;;;0.40;0.40;;;13.00;94.70;;;;;;5011954;28;20505;-64
2023/11/06 12:22:18;;;;;;;0.50;0.50;;;12.90;95.10;;;;;;5011877;28;21026;-64
2023/11/06 12:24:51;;;;;;;0.43;0.40;;;13.00;95.40;;;;;;5011855;28;20684;-64
2023/11/06 12:27:18;;;;;;;0.50;0.50;;;13.20;96.10;;;;;;5011491;28;20182;-64
2023/11/06 12:29:44;;;;;;;0.40;0.40;;;13.20;95.90;;;;;;5011920;28;20799;-63
2023/11/06 12:32:23;;;;;;;1.53;0.40;;;13.10;95.20;;;;;;5015544;28;20428;-63
2023/11/06 12:35:14;;;;;;;0.70;0.70;;;12.80;95.60;;;;;;5015940;28;20433;-63
2023/11/06 12:37:54;;;;;;;0.53;0.53;;;12.70;95.50;;;;;;5014520;28;20410;-64
2023/11/06 12:40:27;;;;;;;0.50;0.50;;;12.50;95.80;;;;;;5015527;28;20987;-63
2023/11/06 12:42:57;;;;;;;0.73;0.60;;;12.40;95.80;;;;;;5015586;28;20908;-63
2023/11/06 12:45:31;;;;;;;0.63;0.50;;;12.20;96.40;;;;;;5015466;28;21153;-63
2023/11/06 12:47:58;;;;;;;0.40;0.40;;;12.10;96.90;;;;;;5014905;28;20409;-63
2023/11/06 12:50:24;;;;;;;0.50;0.50;;;12.10;96.80;;;;;;5015554;28;20422;-62
2023/11/06 12:52:51;;;;;;;0.63;0.43;;;12.10;95.80;;;;;;5015977;28;20410;-63